»·PEaware :: SWA210 KBUR-KLAS

SWA210 :: KBUR-KLAS

FLIGHT INFORMATION

Flight Status: Arrived
Operator:
Southwest Airlines
More flights by this operator :: More flights under this callsign
Pilot: Anonymous 16446 (16446)
Aircraft: BOEING 737-200
(B732)
More flights by this aircraft type
Origin: KBUR Bob Hope-Burbank
United States
Destination: KLAS McCarran Intl
United States
More flights between these airports :: More routes between these airports
Route: +VNY3 DAG CLARR3
File this flight plan on PilotEdge
Remarks:
Altitude:
(Current/Filed)
28,000ft
Speed:
(Current/Filed)
475kts
Departed: 04-Aug-18 08:20 PM
Arrived: 04-Aug-18 09:02 PM
Distance/Time
Traveled:
194nm/0:42
Distance/Time
To Go:
Arrived

Flight Plot

Page will automatically refresh every two minutes.

Flight plan parsing failed; only flown route is shown


Map Options




Map Legend


Flown Route
Filed Route
Departure Airport
Arrival Airport
Navaid (VOR, NDB)
Fix

Horizontal Profiles

Position Reports

Time Latitude Longitude Heading Altitude Ground
Speed
04-Aug-18 19:45 34.196765 -118.351977 180 785ft 0kts
04-Aug-18 19:46 34.196765 -118.351977 180 785ft 0kts
04-Aug-18 19:47 34.196765 -118.351977 180 785ft 0kts
04-Aug-18 19:48 34.196765 -118.351977 180 785ft 0kts
04-Aug-18 19:49 34.196765 -118.351977 180 785ft 0kts
04-Aug-18 19:50 34.196765 -118.351977 180 785ft 0kts
04-Aug-18 19:51 34.196765 -118.351977 180 785ft 0kts
04-Aug-18 19:52 34.196765 -118.351977 180 785ft 0kts
04-Aug-18 19:53 34.196765 -118.351977 180 785ft 0kts
04-Aug-18 19:54 34.196765 -118.351977 180 785ft 0kts
04-Aug-18 19:55 34.196765 -118.351977 180 785ft 0kts
04-Aug-18 19:56 34.196765 -118.351977 180 785ft 0kts
04-Aug-18 19:57 34.196765 -118.351977 180 785ft 0kts
04-Aug-18 19:58 34.196765 -118.351977 180 785ft 0kts
04-Aug-18 19:59 34.196765 -118.351977 180 785ft 0kts
04-Aug-18 20:00 34.196765 -118.351977 180 785ft 0kts
04-Aug-18 20:01 34.196765 -118.351977 180 785ft 0kts
04-Aug-18 20:02 34.196824 -118.351969 196 785ft 2kts
04-Aug-18 20:03 34.197265 -118.351720 235 785ft 2kts
04-Aug-18 20:04 34.197355 -118.351438 264 785ft 2kts
04-Aug-18 20:05 34.197356 -118.351326 274 785ft 0kts
04-Aug-18 20:06 34.197356 -118.351326 274 785ft 0kts
04-Aug-18 20:07 34.197356 -118.351326 274 785ft 0kts
04-Aug-18 20:08 34.197160 -118.351357 273 785ft 0kts
04-Aug-18 20:09 34.197160 -118.351358 273 785ft 0kts
04-Aug-18 20:10 34.197160 -118.351358 273 785ft 0kts
04-Aug-18 20:11 34.197200 -118.351386 264 785ft 0kts
04-Aug-18 20:12 34.197200 -118.351386 264 785ft 0kts
04-Aug-18 20:13 34.197180 -118.352284 272 785ft 7kts
04-Aug-18 20:14 34.198028 -118.355143 334 785ft 12kts
04-Aug-18 20:15 34.201563 -118.356126 345 785ft 14kts
04-Aug-18 20:16 34.205750 -118.357357 345 785ft 16kts
04-Aug-18 20:17 34.209928 -118.358444 348 785ft 15kts
04-Aug-18 20:18 34.211527 -118.358994 311 785ft 0kts
04-Aug-18 20:19 34.211527 -118.358994 311 785ft 0kts
04-Aug-18 20:20 34.211900 -118.359520 310 785ft 11kts
04-Aug-18 20:21 34.203599 -118.358048 166 785ft 129kts
04-Aug-18 20:22 34.158775 -118.363304 226 2536ft 203kts
04-Aug-18 20:23 34.128921 -118.430771 283 5263ft 251kts
04-Aug-18 20:24 34.178473 -118.479492 333 8806ft 243kts
04-Aug-18 20:25 34.242825 -118.526016 327 10243ft 311kts
04-Aug-18 20:26 34.305844 -118.581730 325 13585ft 293kts
04-Aug-18 20:27 34.386122 -118.558512 52 13934ft 383kts
04-Aug-18 20:28 34.426616 -118.443687 69 15900ft 396kts
04-Aug-18 20:29 34.467941 -118.327079 53 17490ft 407kts
04-Aug-18 20:30 34.527664 -118.230242 52 18726ft 416kts
04-Aug-18 20:31 34.597756 -118.117464 52 19973ft 426kts
04-Aug-18 20:32 34.669213 -118.002281 53 21121ft 435kts
04-Aug-18 20:33 34.740382 -117.882723 63 22061ft 443kts
04-Aug-18 20:34 34.749882 -117.737609 100 23006ft 439kts
04-Aug-18 20:35 34.733647 -117.590456 99 24014ft 444kts
04-Aug-18 20:36 34.747257 -117.440618 78 25009ft 456kts
04-Aug-18 20:37 34.780483 -117.295892 75 25806ft 463kts
04-Aug-18 20:38 34.818051 -117.146071 74 26490ft 471kts
04-Aug-18 20:39 34.857217 -116.992799 74 26888ft 483kts
04-Aug-18 20:40 34.897727 -116.833688 74 26894ft 500kts
04-Aug-18 20:41 34.939129 -116.669631 74 26893ft 513kts
04-Aug-18 20:42 34.985153 -116.507760 56 26875ft 509kts
04-Aug-18 20:43 35.093101 -116.400628 39 26894ft 496kts
04-Aug-18 20:44 35.180156 -116.300480 45 25471ft 475kts
04-Aug-18 20:45 35.268050 -116.189490 46 24384ft 467kts
04-Aug-18 20:46 35.357074 -116.075750 46 23015ft 458kts
04-Aug-18 20:47 35.439413 -115.970108 45 22096ft 384kts
04-Aug-18 20:48 35.510911 -115.878067 45 19500ft 363kts
04-Aug-18 20:49 35.578452 -115.790815 44 16528ft 345kts
04-Aug-18 20:50 35.642338 -115.708138 44 13651ft 328kts
04-Aug-18 20:51 35.703336 -115.628799 43 13031ft 317kts
04-Aug-18 20:52 35.764443 -115.549702 43 12547ft 322kts
04-Aug-18 20:53 35.825125 -115.470563 46 11949ft 311kts
04-Aug-18 20:54 35.883517 -115.394127 46 10974ft 297kts
04-Aug-18 20:55 35.920819 -115.313842 83 10119ft 301kts
04-Aug-18 20:56 35.923282 -115.213424 61 8871ft 301kts
04-Aug-18 20:57 35.971049 -115.129725 50 8242ft 297kts
04-Aug-18 20:58 35.998595 -115.037843 90 7061ft 289kts
04-Aug-18 20:59 36.010788 -114.944741 45 5401ft 283kts
04-Aug-18 21:00 36.062404 -114.980125 305 4003ft 242kts
04-Aug-18 21:01 36.071620 -115.050885 258 3475ft 188kts
04-Aug-18 21:02 36.073869 -115.104708 267 2407ft 144kts
04-Aug-18 21:03 36.073936 -115.144027 294 2123ft 34kts
04-Aug-18 21:04 36.074824 -115.146102 302 2123ft 0kts
04-Aug-18 21:05 36.075269 -115.146509 347 2123ft 8kts
04-Aug-18 21:06 36.078315 -115.147266 336 2123ft 6kts
04-Aug-18 21:07 36.081236 -115.148206 56 2123ft 8kts
04-Aug-18 21:08 36.081400 -115.147776 64 2123ft 0kts
04-Aug-18 21:09 36.081400 -115.147776 64 2123ft 0kts
04-Aug-18 21:10 36.081400 -115.147776 64 2123ft 0kts
04-Aug-18 21:11 36.081400 -115.147776 64 2123ft 0kts
04-Aug-18 21:12 36.081400 -115.147776 64 2123ft 0kts
04-Aug-18 21:13 36.081400 -115.147776 64 2123ft 0kts

Navigation Log

Ident Type
Flight plan parsing failed, navigation log unavailable